This is the latest recevied weather packets stored in our database for station/object BM2MWA-13. If no packets are shown the sender has not sent any weather packets the latest 10 day(s).
| Time | Temp. | Humidity | Pressure | Rain* | Wind** | Luminosity | Snow |
|---|---|---|---|---|---|---|---|
| 1787386024 | 29.44° C | 77% | 997.8 hPa | 0 mm | - | - | - |
| 1787385423 | 30° C | 75% | 997.7 hPa | 0 mm | - | - | - |
| 1787384823 | 30° C | 77% | 997.7 hPa | 0 mm | - | - | - |
| 1787384223 | 30° C | 77% | 997.6 hPa | 0 mm | - | - | - |
| 1787383623 | 29.44° C | 81% | 997.6 hPa | 0 mm | - | - | - |
| 1787383023 | 29.44° C | 83% | 997.7 hPa | 0 mm | - | - | - |
| 1787382423 | 30° C | 79% | 997.8 hPa | 0 mm | - | - | - |
| 1787381823 | 30° C | 76% | 997.7 hPa | 0 mm | - | - | - |
| 1787381223 | 30.56° C | 74% | 997.7 hPa | 0 mm | - | - | - |
| 1787380624 | 30.56° C | 75% | 997.7 hPa | 0 mm | - | - | - |
| 1787380023 | 30.56° C | 74% | 997.7 hPa | 0 mm | - | - | - |
| 1787379423 | 30.56° C | 73% | 997.7 hPa | 0 mm | - | - | - |
| 1787378823 | 30.56° C | 73% | 997.8 hPa | 0 mm | - | - | - |
| 1787378223 | 30.56° C | 71% | 997.8 hPa | 0 mm | - | - | - |
| 1787377623 | 31.11° C | 70% | 997.8 hPa | 0 mm | - | - | - |
| 1787377023 | 31.67° C | 69% | 997.7 hPa | 0 mm | - | - | - |
| 1787376423 | 31.11° C | 73% | 997.7 hPa | 0 mm | - | - | - |
| 1787375824 | 31.11° C | 71% | 997.7 hPa | 0 mm | - | - | - |
| 1787375223 | 31.67° C | 68% | 997.8 hPa | 0 mm | - | - | - |
| 1787374623 | 31.67° C | 71% | 997.9 hPa | 0 mm | - | - | - |
| 1787374023 | 31.11° C | 74% | 997.9 hPa | 0 mm | - | - | - |
| 1787373423 | 31.11° C | 74% | 998 hPa | 0 mm | - | - | - |
| 1787372824 | 31.67° C | 69% | 998.2 hPa | 0 mm | - | - | - |
| 1787372223 | 32.22° C | 67% | 998.4 hPa | 0 mm | - | - | - |
| 1787371623 | 32.78° C | 62% | 998.5 hPa | 0 mm | - | - | - |
* Rain latest hour (hover to see other rain measurements)
** Current wind speed in m/s (hover to see current wind gust speed)